Portada
METAR-TAF:

METAR-TAF

Aeropuertos :

Aeropuerto Matsapha

Manzini, Suazilandia

latitud: 26-32S, longitud: 031-18E, altitud: 641 m

Observación

El informe se hizo hace 15 horas y 58 minutos, a las 13:00 UTC
Viento 5 kt del este
Temperatura 30°C
Humedad 40%
Presión 1016 hPa
Visibilidad 10 km o más
sin nubes por debajo de 1500 m y sin presencia de cumulonimbus.

METAR: FDMS 201300Z 09005KT CAVOK 30/15 Q1016 NOSIG

Hora: 06:58 (04:58 UTC)

Pronóstico

El informe se hizo hace 18 horas y 58 minutos, a las 10:00 UTC
Pronóstico válido del 20 a las 12 UTC al 20 a las 18 UTC
Viento 5 kt del norte
Visibilidad 10 km o más
sin nubes por debajo de 1500 m y sin presencia de cumulonimbus.

TAF: FDMS 201000Z 2012/2018 36005KT CAVOK

Observaciones y pronósticos meteorológicos de más de 4000 aeropuertos (mensajes METAR y TAF).

Los puntos amarillos y rojos representan las estaciones disponibles.

Ponga el ratón en el punto deseado para ver el nombre de la estación.

Haga clic para ver las observaciones y los pronósticos meteorológicos.

Para cambiar el mapa : haga clic en los botones verdes con una cruz de color negro para hacer un zoom, en el botón verde con un guión para alejar o en las flechas verdes para mapas adyacentes.


METAR-TAF: